createdAt,value
2017-09-28T02:07:39.987Z,14.40
2017-09-28T02:10:09.575Z,14.40
2017-09-28T02:12:39.240Z,14.47
2017-09-28T02:15:08.581Z,14.51
2017-09-28T02:17:38.348Z,14.55
2017-09-28T02:20:08.269Z,14.55
2017-09-28T02:22:37.229Z,14.57
2017-09-28T02:25:06.239Z,14.63
2017-09-28T02:27:35.377Z,14.44
2017-09-28T02:30:05.106Z,14.28
2017-09-28T02:32:34.048Z,14.34
2017-09-28T02:35:03.065Z,14.42
2017-09-28T02:37:32.936Z,14.23
2017-09-28T02:40:01.944Z,14.26
2017-09-28T02:42:31.272Z,14.35
2017-09-28T02:45:01.384Z,14.34
2017-09-28T02:47:31.035Z,14.09
2017-09-28T02:50:00.149Z,14.11
2017-09-28T02:52:29.028Z,14.18
2017-09-28T02:54:57.863Z,14.23
2017-09-28T02:57:26.804Z,14.22
2017-09-28T02:59:55.713Z,14.22
2017-09-28T03:02:24.638Z,14.20
2017-09-28T03:04:54.239Z,14.22
2017-09-28T03:07:24.992Z,13.80
2017-09-28T03:09:53.943Z,14.03
2017-09-28T03:12:22.779Z,13.90
2017-09-28T03:14:51.969Z,14.03
2017-09-28T03:17:20.811Z,14.12
2017-09-28T03:19:49.837Z,14.18
2017-09-28T03:22:19.419Z,14.12
2017-09-28T03:24:48.624Z,14.06
2017-09-28T03:27:17.484Z,14.09
2017-09-28T03:29:46.315Z,14.04
2017-09-28T03:32:15.892Z,14.00
2017-09-28T03:34:45.409Z,13.96
2017-09-28T03:37:14.451Z,13.91
2017-09-28T03:39:43.311Z,13.93
2017-09-28T03:42:12.924Z,13.95
2017-09-28T03:44:42.057Z,13.94
2017-09-28T03:47:11.212Z,13.94
2017-09-28T03:49:41.309Z,13.93
2017-09-28T03:54:54.081Z,13.68
2017-09-28T03:57:23.336Z,13.77
2017-09-28T03:59:52.324Z,13.80
2017-09-28T04:02:21.262Z,13.83
2017-09-28T04:04:50.118Z,13.80
2017-09-28T04:07:19.752Z,13.76
2017-09-28T04:09:48.622Z,13.79
2017-09-28T04:12:18.655Z,13.74
2017-09-28T04:14:48.040Z,13.83
2017-09-28T04:17:18.083Z,13.76
2017-09-28T04:19:46.963Z,13.83
2017-09-28T04:22:15.805Z,13.83
2017-09-28T04:24:44.727Z,13.86
2017-09-28T04:27:14.506Z,13.77
2017-09-28T04:29:43.500Z,13.82
2017-09-28T04:32:12.513Z,13.81
2017-09-28T04:34:42.209Z,13.85
2017-09-28T04:37:11.823Z,13.79
2017-09-28T04:39:41.444Z,13.66
2017-09-28T04:42:10.625Z,13.64
2017-09-28T04:44:40.284Z,13.60
2017-09-28T04:47:09.148Z,13.59
2017-09-28T04:49:39.062Z,13.59
2017-09-28T04:52:08.701Z,13.63
2017-09-28T04:54:37.585Z,13.58
2017-09-28T04:57:06.743Z,13.63
2017-09-28T04:59:35.615Z,13.57
2017-09-28T05:02:05.200Z,13.63
2017-09-28T05:04:34.349Z,13.62
2017-09-28T05:07:03.614Z,13.62
2017-09-28T05:09:33.599Z,13.59
2017-09-28T05:12:02.856Z,13.56
2017-09-28T05:14:31.763Z,13.58
2017-09-28T05:17:00.630Z,13.57
2017-09-28T05:19:29.770Z,13.58
2017-09-28T05:21:59.175Z,13.68
2017-09-28T05:24:28.376Z,13.73
2017-09-28T05:26:58.147Z,13.81
2017-09-28T05:29:27.026Z,13.71
2017-09-28T05:31:56.057Z,13.77
2017-09-28T05:34:25.291Z,13.85
2017-09-28T05:36:55.078Z,14.06
2017-09-28T05:39:24.824Z,14.14
2017-09-28T05:41:54.202Z,14.30
2017-09-28T05:44:23.844Z,14.47
2017-09-28T05:46:52.999Z,14.45
2017-09-28T05:49:21.923Z,14.65
2017-09-28T05:51:50.785Z,14.68
2017-09-28T05:54:20.725Z,14.91
2017-09-28T05:56:49.677Z,15.09
2017-09-28T05:59:18.703Z,14.89
2017-09-28T06:01:48.095Z,15.14
2017-09-28T06:04:17.139Z,15.22
2017-09-28T06:06:47.514Z,15.59
2017-09-28T06:09:16.455Z,15.85
2017-09-28T06:11:45.388Z,15.96
2017-09-28T06:14:15.046Z,16.22
2017-09-28T06:16:44.000Z,15.82
2017-09-28T06:19:13.276Z,16.02
2017-09-28T06:21:42.899Z,16.32
2017-09-28T06:24:12.534Z,16.52
2017-09-28T06:26:41.829Z,16.73
2017-09-28T06:29:10.718Z,16.85
2017-09-28T06:31:39.630Z,17.00
2017-09-28T06:34:08.514Z,17.08
2017-09-28T06:36:37.448Z,17.23
2017-09-28T06:39:07.924Z,17.38
2017-09-28T06:41:36.790Z,17.40
2017-09-28T06:44:05.701Z,17.54
2017-09-28T06:46:34.883Z,17.75
2017-09-28T06:49:03.979Z,17.90
2017-09-28T06:51:33.087Z,18.03
2017-09-28T06:54:02.820Z,18.11
2017-09-28T06:56:31.728Z,17.83
2017-09-28T06:59:01.740Z,18.08
2017-09-28T07:01:31.402Z,18.37
2017-09-28T07:04:00.329Z,18.61
2017-09-28T07:06:29.477Z,18.71
2017-09-28T07:08:59.075Z,18.93
2017-09-28T07:11:28.868Z,19.05
2017-09-28T07:13:58.493Z,19.03
2017-09-28T07:16:27.416Z,19.25
2017-09-28T07:18:56.579Z,19.40
2017-09-28T07:21:25.447Z,19.49
2017-09-28T07:23:55.078Z,19.60
2017-09-28T07:26:24.308Z,19.72
2017-09-28T07:28:53.459Z,19.84
2017-09-28T07:31:22.361Z,19.94
2017-09-28T07:33:51.248Z,20.06
2017-09-28T07:36:20.568Z,20.22
2017-09-28T07:38:50.463Z,20.17
2017-09-28T07:41:19.335Z,20.28
2017-09-28T07:43:50.475Z,20.41
2017-09-28T07:46:20.795Z,20.34
2017-09-28T07:48:50.775Z,20.76
2017-09-28T07:51:19.937Z,21.02
2017-09-28T07:53:48.837Z,21.26
2017-09-28T07:56:17.726Z,21.45
2017-09-28T07:58:46.579Z,21.60
2017-09-28T08:01:15.988Z,21.82
2017-09-28T08:03:46.380Z,21.74
2017-09-28T08:06:16.032Z,22.15
2017-09-28T08:08:44.955Z,22.43
2017-09-28T08:11:14.900Z,22.76
2017-09-28T08:13:44.748Z,23.02
2017-09-28T08:16:13.682Z,23.11
2017-09-28T08:18:44.246Z,23.17
2017-09-28T08:21:13.895Z,23.41
2017-09-28T08:23:44.107Z,23.46
2017-09-28T08:26:13.056Z,23.52
2017-09-28T08:28:42.736Z,23.76
2017-09-28T08:31:13.354Z,23.76
2017-09-28T08:33:42.996Z,24.01
2017-09-28T08:36:12.692Z,24.09
2017-09-28T08:38:42.332Z,24.28
2017-09-28T08:41:11.274Z,24.52
2017-09-28T08:43:40.512Z,24.70
2017-09-28T08:46:09.631Z,24.47
2017-09-28T08:48:38.544Z,24.90
2017-09-28T08:51:07.782Z,25.15
2017-09-28T08:53:36.822Z,25.30
2017-09-28T08:56:05.844Z,25.47
2017-09-28T08:58:35.502Z,25.41
2017-09-28T09:01:04.423Z,25.45
2017-09-28T09:03:33.688Z,25.05
2017-09-28T09:06:03.624Z,25.25
2017-09-28T09:08:32.531Z,25.45
2017-09-28T09:11:01.616Z,25.55
2017-09-28T09:13:30.829Z,25.45
2017-09-28T09:16:00.076Z,25.61
2017-09-28T09:18:30.612Z,25.35
2017-09-28T09:21:05.766Z,25.39
2017-09-28T09:23:36.704Z,25.49
2017-09-28T09:30:07.041Z,25.37
2017-09-28T09:44:09.619Z,24.84
2017-09-28T09:46:39.687Z,24.79
2017-09-28T09:49:14.263Z,24.79
2017-09-28T09:52:01.088Z,24.66
2017-09-28T09:54:31.916Z,24.91
2017-09-28T09:59:57.892Z,24.12
2017-09-28T10:02:33.381Z,23.86
2017-09-28T10:06:16.227Z,23.72
2017-09-28T10:09:21.505Z,23.48
2017-09-28T10:15:16.073Z,23.04
2017-09-28T10:17:45.121Z,22.89
2017-09-28T10:20:14.518Z,22.95
2017-09-28T10:23:31.533Z,23.25
2017-09-28T10:26:06.027Z,23.15
2017-09-28T10:28:35.641Z,22.90
2017-09-28T10:31:04.948Z,22.94
2017-09-28T10:33:34.023Z,22.91
2017-09-28T10:36:03.874Z,22.95
2017-09-28T10:38:33.450Z,22.82
2017-09-28T10:41:03.316Z,23.25
2017-09-28T10:43:32.416Z,23.98
2017-09-28T10:46:02.476Z,24.42
2017-09-28T10:48:32.131Z,24.83
2017-09-28T10:51:01.146Z,24.74
2017-09-28T10:53:31.114Z,25.05
2017-09-28T10:56:00.073Z,25.34
2017-09-28T10:58:29.740Z,25.21
2017-09-28T11:00:58.954Z,25.33
2017-09-28T11:03:27.896Z,25.32
2017-09-28T11:05:56.794Z,25.46
2017-09-28T11:08:26.032Z,25.54
2017-09-28T11:10:55.649Z,25.52
2017-09-28T11:13:25.281Z,25.47
2017-09-28T11:15:54.507Z,25.98
2017-09-28T11:18:23.508Z,26.05
2017-09-28T11:20:53.154Z,26.11
2017-09-28T11:23:22.592Z,26.18
2017-09-28T11:25:51.551Z,26.36
2017-09-28T11:28:21.663Z,26.50
2017-09-28T11:30:50.887Z,26.66
2017-09-28T11:33:19.828Z,26.21
2017-09-28T11:35:50.125Z,25.83
2017-09-28T11:38:19.574Z,25.75
2017-09-28T11:40:48.716Z,25.17
2017-09-28T11:43:17.598Z,25.38
2017-09-28T11:45:46.839Z,25.88
2017-09-28T11:48:15.724Z,25.71
2017-09-28T11:50:45.561Z,25.70
2017-09-28T11:53:16.196Z,25.45
2017-09-28T11:55:45.138Z,25.72
2017-09-28T11:58:14.064Z,25.80
2017-09-28T12:00:45.744Z,25.81
2017-09-28T12:03:15.595Z,26.27
2017-09-28T12:05:44.555Z,25.95
2017-09-28T12:08:14.465Z,25.74
2017-09-28T12:10:44.115Z,25.83
2017-09-28T12:13:14.006Z,25.86
2017-09-28T12:15:45.571Z,24.94
2017-09-28T12:18:15.400Z,25.29
2017-09-28T12:20:45.164Z,25.13
2017-09-28T12:23:15.224Z,25.59
2017-09-28T12:25:44.122Z,25.52
2017-09-28T12:28:17.458Z,25.12
2017-09-28T12:30:47.177Z,25.37
2017-09-28T12:33:16.104Z,25.29
2017-09-28T12:35:45.319Z,24.90
2017-09-28T12:38:14.276Z,24.97
2017-09-28T12:40:45.900Z,24.63
2017-09-28T12:43:15.810Z,24.52
2017-09-28T12:45:45.799Z,24.65
2017-09-28T12:48:16.025Z,24.36
2017-09-28T12:50:45.437Z,24.97
2017-09-28T12:53:15.309Z,25.20
2017-09-28T12:55:45.846Z,24.82
2017-09-28T12:58:15.096Z,24.57
2017-09-28T13:00:44.146Z,24.59
2017-09-28T13:03:13.363Z,24.99
2017-09-28T13:05:42.562Z,24.54
2017-09-28T13:08:12.641Z,24.85
2017-09-28T13:10:41.764Z,25.01
2017-09-28T13:13:10.926Z,25.06
2017-09-28T13:15:40.008Z,25.10
2017-09-28T13:18:10.254Z,25.05
2017-09-28T13:20:39.457Z,25.20
2017-09-28T13:23:09.234Z,25.02
2017-09-28T13:25:38.926Z,25.08
2017-09-28T13:28:09.724Z,25.18
2017-09-28T13:30:39.589Z,25.74
2017-09-28T13:33:09.236Z,25.82
2017-09-28T13:35:39.137Z,26.43
2017-09-28T13:38:56.071Z,26.05
2017-09-28T13:41:53.685Z,26.24
2017-09-28T13:54:45.969Z,26.28
2017-09-28T14:10:18.773Z,24.39
2017-09-28T15:03:25.889Z,23.34
2017-09-28T15:06:37.972Z,23.77
2017-09-28T15:09:07.798Z,23.77
2017-09-28T15:11:37.500Z,23.83
2017-09-28T15:14:07.840Z,23.97
2017-09-28T15:16:38.974Z,24.02
2017-09-28T15:19:11.405Z,23.31
2017-09-28T15:21:45.306Z,23.43
2017-09-28T15:24:15.423Z,23.84
2017-09-28T15:26:45.085Z,23.89
2017-09-28T15:29:15.076Z,23.87
2017-09-28T15:31:44.777Z,24.05
2017-09-28T15:34:15.424Z,23.92
2017-09-28T15:36:47.085Z,23.81
2017-09-28T15:39:16.127Z,23.83
2017-09-28T15:41:45.231Z,23.94
2017-09-28T15:44:14.929Z,23.73
2017-09-28T15:46:46.129Z,23.71
2017-09-28T15:49:15.827Z,23.77
2017-09-28T15:51:45.102Z,23.88
2017-09-28T15:54:18.803Z,23.90
2017-09-28T15:56:59.259Z,23.83
2017-09-28T15:59:29.312Z,23.73
2017-09-28T16:01:58.724Z,23.73
2017-09-28T16:04:30.704Z,23.54
2017-09-28T16:07:06.092Z,23.07
2017-09-28T16:09:35.320Z,23.32
2017-09-28T16:12:15.554Z,23.43
2017-09-28T16:14:44.718Z,23.07
2017-09-28T16:17:15.104Z,22.98
2017-09-28T16:19:45.554Z,22.90
2017-09-28T16:32:22.601Z,22.70
2017-09-28T16:35:20.491Z,22.25
2017-09-28T16:38:18.021Z,22.60
2017-09-28T16:40:49.556Z,22.03
2017-09-28T16:43:47.923Z,21.95
2017-09-28T16:53:57.077Z,22.18
2017-09-28T17:30:26.541Z,21.56
2017-09-28T17:45:59.608Z,21.52
2017-09-28T17:56:40.331Z,21.27
2017-09-28T18:01:03.861Z,21.13
2017-09-28T18:05:59.699Z,20.74
2017-09-28T18:08:47.218Z,20.98
2017-09-28T18:11:37.456Z,21.17
2017-09-28T18:14:07.937Z,21.27
2017-09-28T18:16:37.275Z,20.64
2017-09-28T18:19:21.200Z,20.90
2017-09-28T18:21:50.492Z,20.70
2017-09-28T18:24:19.468Z,20.71
2017-09-28T18:29:22.214Z,20.68
2017-09-28T18:31:56.040Z,20.78
2017-09-28T18:34:30.911Z,20.70
2017-09-28T18:36:59.852Z,20.19
2017-09-28T18:39:30.888Z,20.71
2017-09-28T18:41:59.936Z,21.05
2017-09-28T18:44:34.561Z,21.32
2017-09-28T18:47:03.901Z,21.56
2017-09-28T18:49:33.125Z,21.56
2017-09-28T18:52:02.320Z,21.70
2017-09-28T18:54:32.276Z,21.22
2017-09-28T18:57:01.389Z,21.32
2017-09-28T18:59:30.321Z,21.33
2017-09-28T19:02:00.009Z,21.29
2017-09-28T19:04:29.052Z,21.37
2017-09-28T19:07:00.260Z,21.38
2017-09-28T19:09:30.218Z,21.42
2017-09-28T19:11:59.749Z,21.46
2017-09-28T19:14:29.340Z,21.54
2017-09-28T19:16:58.351Z,21.32
2017-09-28T19:19:27.434Z,21.52
2017-09-28T19:21:56.639Z,21.54
2017-09-28T19:24:26.800Z,21.66
2017-09-28T19:26:58.430Z,21.73
2017-09-28T19:29:29.180Z,21.47
2017-09-28T19:31:58.629Z,21.61
2017-09-28T19:34:27.835Z,21.64
2017-09-28T19:36:56.852Z,21.85
2017-09-28T19:42:01.113Z,21.67
2017-09-28T19:44:31.297Z,21.67
2017-09-28T19:47:01.780Z,21.72
2017-09-28T19:49:30.694Z,21.28
2017-09-28T19:51:59.596Z,21.55
2017-09-28T19:54:28.708Z,21.76
2017-09-28T19:56:57.601Z,21.85
2017-09-28T19:59:27.272Z,21.73
2017-09-28T20:01:56.980Z,21.65
2017-09-28T20:04:25.912Z,21.19
2017-09-28T20:06:55.562Z,20.87
2017-09-28T20:09:24.885Z,21.19
2017-09-28T20:11:54.023Z,21.33
2017-09-28T20:14:23.790Z,21.29
2017-09-28T20:16:53.057Z,21.31
2017-09-28T20:19:22.077Z,21.11
2017-09-28T20:21:51.032Z,21.10
2017-09-28T20:24:21.330Z,21.32
2017-09-28T20:26:50.978Z,21.34
2017-09-28T20:29:20.625Z,21.33
2017-09-28T20:31:50.666Z,21.34
2017-09-28T20:34:20.381Z,21.33
2017-09-28T20:36:50.036Z,21.33
2017-09-28T20:39:20.280Z,21.35
2017-09-28T20:41:49.211Z,21.36
2017-09-28T20:44:18.180Z,21.09
2017-09-28T20:46:48.785Z,21.12
2017-09-28T20:49:17.720Z,20.85
2017-09-28T20:51:47.656Z,21.08
2017-09-28T20:54:18.284Z,21.05
2017-09-28T20:56:48.256Z,20.97
2017-09-28T20:59:17.897Z,20.88
2017-09-28T21:01:48.028Z,20.77
2017-09-28T21:04:17.432Z,20.67
2017-09-28T21:06:46.317Z,20.73
2017-09-28T21:09:15.496Z,20.66
2017-09-28T21:11:44.656Z,20.53
2017-09-28T21:14:13.648Z,20.72
2017-09-28T21:16:42.840Z,20.65
2017-09-28T21:19:11.738Z,20.67
2017-09-28T21:21:40.708Z,20.81
2017-09-28T21:24:09.759Z,20.86
2017-09-28T21:26:39.164Z,20.61
2017-09-28T21:31:48.374Z,20.66
2017-09-28T21:34:19.487Z,20.42
2017-09-28T21:36:48.543Z,20.29
2017-09-28T21:39:18.840Z,20.04
2017-09-28T21:41:48.836Z,20.04
2017-09-28T21:44:18.975Z,20.04
2017-09-28T21:46:48.813Z,19.97
2017-09-28T21:49:18.152Z,19.07
2017-09-28T21:51:50.547Z,19.59
2017-09-28T21:54:23.201Z,19.50
2017-09-28T21:57:02.494Z,19.60
2017-09-28T21:59:35.788Z,19.81
2017-09-28T22:07:52.619Z,19.45
2017-09-28T22:10:27.517Z,19.48
2017-09-28T22:13:04.346Z,19.82
2017-09-28T22:15:46.274Z,19.76
2017-09-28T22:18:29.603Z,19.85
2017-09-28T22:26:43.778Z,20.00
2017-09-28T22:29:20.281Z,20.10
2017-09-28T22:43:57.191Z,20.22
2017-09-28T22:46:37.950Z,20.25
2017-09-28T22:49:08.962Z,20.24
2017-09-28T22:51:48.298Z,20.25
2017-09-28T22:57:40.134Z,20.35
2017-09-28T23:03:18.751Z,20.26
2017-09-28T23:05:53.326Z,20.30
2017-09-28T23:08:24.000Z,20.09
2017-09-28T23:13:49.092Z,20.36
